sensor_id;sensor_type;location;lat;lon;timestamp;temperature;humidity
25923;DHT22;13725;51.170;4.442;2024-01-07T00:01:48;5.00;99.90
25923;DHT22;13725;51.170;4.442;2024-01-07T00:04:18;5.00;99.90
25923;DHT22;13725;51.170;4.442;2024-01-07T00:06:46;5.00;99.90
25923;DHT22;13725;51.170;4.442;2024-01-07T00:09:12;5.00;99.90
25923;DHT22;13725;51.170;4.442;2024-01-07T00:11:41;5.10;99.90
25923;DHT22;13725;51.170;4.442;2024-01-07T00:14:06;5.00;99.90
25923;DHT22;13725;51.170;4.442;2024-01-07T00:16:32;5.00;99.90
25923;DHT22;13725;51.170;4.442;2024-01-07T00:18:58;5.00;99.90
25923;DHT22;13725;51.170;4.442;2024-01-07T00:21:24;5.00;99.90
25923;DHT22;13725;51.170;4.442;2024-01-07T00:23:50;4.90;99.90
25923;DHT22;13725;51.170;4.442;2024-01-07T00:26:15;4.90;99.90
25923;DHT22;13725;51.170;4.442;2024-01-07T00:28:41;4.90;99.90
25923;DHT22;13725;51.170;4.442;2024-01-07T00:31:07;4.70;99.90
25923;DHT22;13725;51.170;4.442;2024-01-07T00:33:36;4.90;99.90
25923;DHT22;13725;51.170;4.442;2024-01-07T00:36:03;4.80;99.90
25923;DHT22;13725;51.170;4.442;2024-01-07T00:38:29;4.70;99.90
25923;DHT22;13725;51.170;4.442;2024-01-07T00:40:54;4.90;99.90
25923;DHT22;13725;51.170;4.442;2024-01-07T00:43:20;4.70;99.90
25923;DHT22;13725;51.170;4.442;2024-01-07T00:45:46;4.60;99.90
25923;DHT22;13725;51.170;4.442;2024-01-07T00:48:13;4.60;99.90
25923;DHT22;13725;51.170;4.442;2024-01-07T00:50:39;4.60;99.90
25923;DHT22;13725;51.170;4.442;2024-01-07T00:53:05;4.50;99.90
25923;DHT22;13725;51.170;4.442;2024-01-07T00:55:31;4.50;99.90
25923;DHT22;13725;51.170;4.442;2024-01-07T00:57:57;4.60;99.90
25923;DHT22;13725;51.170;4.442;2024-01-07T01:00:23;4.50;99.90
25923;DHT22;13725;51.170;4.442;2024-01-07T01:02:48;4.60;99.90
25923;DHT22;13725;51.170;4.442;2024-01-07T01:05:14;4.80;99.90
25923;DHT22;13725;51.170;4.442;2024-01-07T01:07:41;4.50;99.90
25923;DHT22;13725;51.170;4.442;2024-01-07T01:10:07;4.40;99.90
25923;DHT22;13725;51.170;4.442;2024-01-07T01:12:33;4.40;99.90
25923;DHT22;13725;51.170;4.442;2024-01-07T01:14:59;4.40;99.90
25923;DHT22;13725;51.170;4.442;2024-01-07T01:17:25;4.30;99.90
25923;DHT22;13725;51.170;4.442;2024-01-07T01:19:50;4.30;99.90
25923;DHT22;13725;51.170;4.442;2024-01-07T01:22:16;4.20;99.90
25923;DHT22;13725;51.170;4.442;2024-01-07T01:24:42;4.20;99.90
25923;DHT22;13725;51.170;4.442;2024-01-07T01:27:11;4.10;99.90
25923;DHT22;13725;51.170;4.442;2024-01-07T01:29:38;4.00;99.90
25923;DHT22;13725;51.170;4.442;2024-01-07T01:32:05;4.00;99.90
25923;DHT22;13725;51.170;4.442;2024-01-07T01:34:32;3.90;99.90
25923;DHT22;13725;51.170;4.442;2024-01-07T01:36:57;3.90;99.90
25923;DHT22;13725;51.170;4.442;2024-01-07T01:39:23;3.90;99.90
25923;DHT22;13725;51.170;4.442;2024-01-07T01:41:50;3.90;99.90
25923;DHT22;13725;51.170;4.442;2024-01-07T01:44:16;3.90;99.90
25923;DHT22;13725;51.170;4.442;2024-01-07T01:46:41;4.00;99.90
25923;DHT22;13725;51.170;4.442;2024-01-07T01:49:08;4.00;99.90
25923;DHT22;13725;51.170;4.442;2024-01-07T01:51:34;4.10;99.90
25923;DHT22;13725;51.170;4.442;2024-01-07T01:54:02;4.00;99.90
25923;DHT22;13725;51.170;4.442;2024-01-07T01:56:29;4.10;99.90
25923;DHT22;13725;51.170;4.442;2024-01-07T01:58:55;4.20;99.90
25923;DHT22;13725;51.170;4.442;2024-01-07T02:01:24;4.20;99.90
25923;DHT22;13725;51.170;4.442;2024-01-07T02:03:50;4.20;99.90
25923;DHT22;13725;51.170;4.442;2024-01-07T02:06:18;4.20;99.90
25923;DHT22;13725;51.170;4.442;2024-01-07T02:08:45;4.20;99.90
25923;DHT22;13725;51.170;4.442;2024-01-07T02:11:20;4.20;99.90
25923;DHT22;13725;51.170;4.442;2024-01-07T02:13:46;4.20;99.90
25923;DHT22;13725;51.170;4.442;2024-01-07T02:16:12;4.30;99.90
25923;DHT22;13725;51.170;4.442;2024-01-07T02:18:41;4.30;99.90
25923;DHT22;13725;51.170;4.442;2024-01-07T02:21:08;4.30;99.90
25923;DHT22;13725;51.170;4.442;2024-01-07T02:23:35;4.20;99.90
25923;DHT22;13725;51.170;4.442;2024-01-07T02:26:00;4.20;99.90
25923;DHT22;13725;51.170;4.442;2024-01-07T02:28:26;4.10;99.90
25923;DHT22;13725;51.170;4.442;2024-01-07T02:30:52;4.10;99.90
25923;DHT22;13725;51.170;4.442;2024-01-07T02:33:18;4.10;99.90
25923;DHT22;13725;51.170;4.442;2024-01-07T02:35:44;4.10;99.90
25923;DHT22;13725;51.170;4.442;2024-01-07T02:38:10;4.30;99.90
25923;DHT22;13725;51.170;4.442;2024-01-07T02:40:36;4.20;99.90
25923;DHT22;13725;51.170;4.442;2024-01-07T02:43:02;4.00;99.90
25923;DHT22;13725;51.170;4.442;2024-01-07T02:45:28;4.00;99.90
25923;DHT22;13725;51.170;4.442;2024-01-07T02:47:53;4.00;99.90
25923;DHT22;13725;51.170;4.442;2024-01-07T02:50:20;3.90;99.90
25923;DHT22;13725;51.170;4.442;2024-01-07T02:52:45;4.00;99.90
25923;DHT22;13725;51.170;4.442;2024-01-07T02:55:11;4.00;99.90
25923;DHT22;13725;51.170;4.442;2024-01-07T02:57:38;4.10;99.90
25923;DHT22;13725;51.170;4.442;2024-01-07T03:00:04;4.00;99.90
25923;DHT22;13725;51.170;4.442;2024-01-07T03:02:30;4.00;99.90
25923;DHT22;13725;51.170;4.442;2024-01-07T03:04:56;3.90;99.90
25923;DHT22;13725;51.170;4.442;2024-01-07T03:07:22;3.90;99.90
25923;DHT22;13725;51.170;4.442;2024-01-07T03:09:48;3.70;99.90
25923;DHT22;13725;51.170;4.442;2024-01-07T03:12:17;3.70;99.90
25923;DHT22;13725;51.170;4.442;2024-01-07T03:14:43;3.70;99.90
25923;DHT22;13725;51.170;4.442;2024-01-07T03:17:11;3.80;99.90
25923;DHT22;13725;51.170;4.442;2024-01-07T03:19:39;3.90;99.90
25923;DHT22;13725;51.170;4.442;2024-01-07T03:22:07;3.90;99.90
25923;DHT22;13725;51.170;4.442;2024-01-07T03:24:33;3.90;99.90
25923;DHT22;13725;51.170;4.442;2024-01-07T03:27:00;3.90;99.90
25923;DHT22;13725;51.170;4.442;2024-01-07T03:29:26;3.90;99.90
25923;DHT22;13725;51.170;4.442;2024-01-07T03:31:52;4.20;99.90
25923;DHT22;13725;51.170;4.442;2024-01-07T03:34:19;3.90;99.90
25923;DHT22;13725;51.170;4.442;2024-01-07T03:36:45;4.00;99.90
25923;DHT22;13725;51.170;4.442;2024-01-07T03:39:11;4.10;99.90
25923;DHT22;13725;51.170;4.442;2024-01-07T03:41:36;4.00;99.90
25923;DHT22;13725;51.170;4.442;2024-01-07T03:44:02;4.00;99.90
25923;DHT22;13725;51.170;4.442;2024-01-07T03:46:28;4.10;99.90
25923;DHT22;13725;51.170;4.442;2024-01-07T03:48:54;4.00;99.90
25923;DHT22;13725;51.170;4.442;2024-01-07T03:51:22;4.10;99.90
25923;DHT22;13725;51.170;4.442;2024-01-07T03:53:48;4.30;99.90
25923;DHT22;13725;51.170;4.442;2024-01-07T03:56:14;4.10;99.90
25923;DHT22;13725;51.170;4.442;2024-01-07T03:58:40;4.10;99.90
25923;DHT22;13725;51.170;4.442;2024-01-07T04:01:05;4.00;99.90
25923;DHT22;13725;51.170;4.442;2024-01-07T04:03:31;4.00;99.90
25923;DHT22;13725;51.170;4.442;2024-01-07T04:05:57;4.10;99.90
25923;DHT22;13725;51.170;4.442;2024-01-07T04:08:22;4.10;99.90
25923;DHT22;13725;51.170;4.442;2024-01-07T04:10:49;4.20;99.90
25923;DHT22;13725;51.170;4.442;2024-01-07T04:13:14;4.10;99.90
25923;DHT22;13725;51.170;4.442;2024-01-07T04:15:40;4.00;99.90
25923;DHT22;13725;51.170;4.442;2024-01-07T04:18:07;4.00;99.90
25923;DHT22;13725;51.170;4.442;2024-01-07T04:20:34;4.10;99.90
25923;DHT22;13725;51.170;4.442;2024-01-07T04:23:00;4.00;99.90
25923;DHT22;13725;51.170;4.442;2024-01-07T04:25:26;4.10;99.90
25923;DHT22;13725;51.170;4.442;2024-01-07T04:27:51;4.00;99.90
25923;DHT22;13725;51.170;4.442;2024-01-07T04:30:17;4.00;99.90
25923;DHT22;13725;51.170;4.442;2024-01-07T04:32:45;4.00;99.90
25923;DHT22;13725;51.170;4.442;2024-01-07T04:35:11;4.10;99.90
25923;DHT22;13725;51.170;4.442;2024-01-07T04:37:37;3.90;99.90
25923;DHT22;13725;51.170;4.442;2024-01-07T04:40:03;3.90;99.90
25923;DHT22;13725;51.170;4.442;2024-01-07T04:42:29;3.90;99.90
25923;DHT22;13725;51.170;4.442;2024-01-07T04:44:57;3.90;99.90
25923;DHT22;13725;51.170;4.442;2024-01-07T04:47:26;3.90;99.90
25923;DHT22;13725;51.170;4.442;2024-01-07T04:49:53;3.80;99.90
25923;DHT22;13725;51.170;4.442;2024-01-07T04:52:19;3.90;99.90
25923;DHT22;13725;51.170;4.442;2024-01-07T04:54:45;3.80;99.90
25923;DHT22;13725;51.170;4.442;2024-01-07T04:57:10;3.90;99.90
25923;DHT22;13725;51.170;4.442;2024-01-07T04:59:37;3.90;99.90
25923;DHT22;13725;51.170;4.442;2024-01-07T05:02:03;3.90;99.90
25923;DHT22;13725;51.170;4.442;2024-01-07T05:04:29;3.70;99.90
25923;DHT22;13725;51.170;4.442;2024-01-07T05:06:57;3.70;99.90
25923;DHT22;13725;51.170;4.442;2024-01-07T05:09:23;3.60;99.90
25923;DHT22;13725;51.170;4.442;2024-01-07T05:11:49;3.50;99.90
25923;DHT22;13725;51.170;4.442;2024-01-07T05:14:14;3.60;99.90
25923;DHT22;13725;51.170;4.442;2024-01-07T05:16:40;3.50;99.90
25923;DHT22;13725;51.170;4.442;2024-01-07T05:19:06;3.40;99.90
25923;DHT22;13725;51.170;4.442;2024-01-07T05:21:32;3.30;99.90
25923;DHT22;13725;51.170;4.442;2024-01-07T05:23:58;3.20;99.90
25923;DHT22;13725;51.170;4.442;2024-01-07T05:26:24;3.10;99.90
25923;DHT22;13725;51.170;4.442;2024-01-07T05:28:50;3.20;99.90
25923;DHT22;13725;51.170;4.442;2024-01-07T05:31:17;3.20;99.90
25923;DHT22;13725;51.170;4.442;2024-01-07T05:33:45;3.30;99.90
25923;DHT22;13725;51.170;4.442;2024-01-07T05:36:14;3.40;99.90
25923;DHT22;13725;51.170;4.442;2024-01-07T05:38:41;3.40;99.90
25923;DHT22;13725;51.170;4.442;2024-01-07T05:41:07;3.40;99.90
25923;DHT22;13725;51.170;4.442;2024-01-07T05:43:34;3.40;99.90
25923;DHT22;13725;51.170;4.442;2024-01-07T05:46:01;3.50;99.90
25923;DHT22;13725;51.170;4.442;2024-01-07T05:48:26;3.40;99.90
25923;DHT22;13725;51.170;4.442;2024-01-07T05:50:52;3.60;99.90
25923;DHT22;13725;51.170;4.442;2024-01-07T05:53:18;3.60;99.90
25923;DHT22;13725;51.170;4.442;2024-01-07T05:55:44;3.50;99.90
25923;DHT22;13725;51.170;4.442;2024-01-07T05:58:10;3.60;99.90
25923;DHT22;13725;51.170;4.442;2024-01-07T06:00:36;3.70;99.90
25923;DHT22;13725;51.170;4.442;2024-01-07T06:03:02;3.50;99.90
25923;DHT22;13725;51.170;4.442;2024-01-07T06:05:30;3.40;99.90
25923;DHT22;13725;51.170;4.442;2024-01-07T06:07:56;3.40;99.90
25923;DHT22;13725;51.170;4.442;2024-01-07T06:10:22;3.40;99.90
25923;DHT22;13725;51.170;4.442;2024-01-07T06:12:48;3.40;99.90
25923;DHT22;13725;51.170;4.442;2024-01-07T06:15:15;3.50;99.90
25923;DHT22;13725;51.170;4.442;2024-01-07T06:17:41;3.50;99.90
25923;DHT22;13725;51.170;4.442;2024-01-07T06:20:07;3.30;99.90
25923;DHT22;13725;51.170;4.442;2024-01-07T06:22:33;3.30;99.90
25923;DHT22;13725;51.170;4.442;2024-01-07T06:24:59;3.30;99.90
25923;DHT22;13725;51.170;4.442;2024-01-07T06:27:25;3.20;99.90
25923;DHT22;13725;51.170;4.442;2024-01-07T06:29:52;3.20;99.90
25923;DHT22;13725;51.170;4.442;2024-01-07T06:32:19;3.30;99.90
25923;DHT22;13725;51.170;4.442;2024-01-07T06:34:45;3.30;99.90
25923;DHT22;13725;51.170;4.442;2024-01-07T06:37:12;3.50;99.90
25923;DHT22;13725;51.170;4.442;2024-01-07T06:39:38;3.50;99.90
25923;DHT22;13725;51.170;4.442;2024-01-07T06:42:04;3.60;99.90
25923;DHT22;13725;51.170;4.442;2024-01-07T06:44:30;3.70;99.90
25923;DHT22;13725;51.170;4.442;2024-01-07T06:46:57;3.50;99.90
25923;DHT22;13725;51.170;4.442;2024-01-07T06:49:23;3.50;99.90
25923;DHT22;13725;51.170;4.442;2024-01-07T06:51:48;3.40;99.90
25923;DHT22;13725;51.170;4.442;2024-01-07T06:54:14;3.30;99.90
25923;DHT22;13725;51.170;4.442;2024-01-07T06:56:40;3.40;99.90
25923;DHT22;13725;51.170;4.442;2024-01-07T06:59:07;3.40;99.90
25923;DHT22;13725;51.170;4.442;2024-01-07T07:01:33;3.40;99.90
25923;DHT22;13725;51.170;4.442;2024-01-07T07:03:59;3.50;99.90
25923;DHT22;13725;51.170;4.442;2024-01-07T07:06:24;3.60;99.90
25923;DHT22;13725;51.170;4.442;2024-01-07T07:08:50;3.60;99.90
25923;DHT22;13725;51.170;4.442;2024-01-07T07:11:16;3.50;99.90
25923;DHT22;13725;51.170;4.442;2024-01-07T07:13:42;3.40;99.90
25923;DHT22;13725;51.170;4.442;2024-01-07T07:16:07;3.40;99.90
25923;DHT22;13725;51.170;4.442;2024-01-07T07:18:33;3.50;99.90
25923;DHT22;13725;51.170;4.442;2024-01-07T07:20:59;3.50;99.90
25923;DHT22;13725;51.170;4.442;2024-01-07T07:23:25;3.50;99.90
25923;DHT22;13725;51.170;4.442;2024-01-07T07:25:51;3.40;99.90
25923;DHT22;13725;51.170;4.442;2024-01-07T07:28:17;3.40;99.90
25923;DHT22;13725;51.170;4.442;2024-01-07T07:30:43;3.40;99.90
25923;DHT22;13725;51.170;4.442;2024-01-07T07:33:10;3.50;99.90
25923;DHT22;13725;51.170;4.442;2024-01-07T07:35:36;3.60;99.90
25923;DHT22;13725;51.170;4.442;2024-01-07T07:38:04;3.60;99.90
25923;DHT22;13725;51.170;4.442;2024-01-07T07:40:30;3.50;99.90
25923;DHT22;13725;51.170;4.442;2024-01-07T07:42:56;3.50;99.90
25923;DHT22;13725;51.170;4.442;2024-01-07T07:45:21;3.50;99.90
25923;DHT22;13725;51.170;4.442;2024-01-07T07:47:55;3.50;99.90
25923;DHT22;13725;51.170;4.442;2024-01-07T07:50:21;3.50;99.90
25923;DHT22;13725;51.170;4.442;2024-01-07T07:52:47;3.50;99.90
25923;DHT22;13725;51.170;4.442;2024-01-07T07:55:13;3.70;99.90
25923;DHT22;13725;51.170;4.442;2024-01-07T07:57:38;3.50;99.90
25923;DHT22;13725;51.170;4.442;2024-01-07T08:00:06;3.50;99.90
25923;DHT22;13725;51.170;4.442;2024-01-07T08:02:32;3.50;99.90
25923;DHT22;13725;51.170;4.442;2024-01-07T08:04:57;3.50;99.90
25923;DHT22;13725;51.170;4.442;2024-01-07T08:07:23;3.30;99.90
25923;DHT22;13725;51.170;4.442;2024-01-07T08:09:49;3.30;99.90
25923;DHT22;13725;51.170;4.442;2024-01-07T08:12:15;3.30;99.90
25923;DHT22;13725;51.170;4.442;2024-01-07T08:14:41;3.40;99.90
25923;DHT22;13725;51.170;4.442;2024-01-07T08:17:10;3.30;99.90
25923;DHT22;13725;51.170;4.442;2024-01-07T08:19:36;3.50;99.90
25923;DHT22;13725;51.170;4.442;2024-01-07T08:22:03;3.50;99.90
25923;DHT22;13725;51.170;4.442;2024-01-07T08:24:29;3.50;99.90
25923;DHT22;13725;51.170;4.442;2024-01-07T08:26:55;3.60;99.90
25923;DHT22;13725;51.170;4.442;2024-01-07T08:29:21;3.50;99.90
25923;DHT22;13725;51.170;4.442;2024-01-07T08:31:47;3.40;99.90
25923;DHT22;13725;51.170;4.442;2024-01-07T08:34:12;3.40;99.90
25923;DHT22;13725;51.170;4.442;2024-01-07T08:36:40;3.40;99.90
25923;DHT22;13725;51.170;4.442;2024-01-07T08:39:05;3.50;99.90
25923;DHT22;13725;51.170;4.442;2024-01-07T08:41:31;3.50;99.90
25923;DHT22;13725;51.170;4.442;2024-01-07T08:43:57;3.50;99.90
25923;DHT22;13725;51.170;4.442;2024-01-07T08:46:23;3.40;99.90
25923;DHT22;13725;51.170;4.442;2024-01-07T08:48:49;3.30;99.90
25923;DHT22;13725;51.170;4.442;2024-01-07T08:51:14;3.40;99.90
25923;DHT22;13725;51.170;4.442;2024-01-07T08:53:41;3.70;99.90
25923;DHT22;13725;51.170;4.442;2024-01-07T08:56:06;3.50;99.90
25923;DHT22;13725;51.170;4.442;2024-01-07T08:58:32;3.50;99.90
25923;DHT22;13725;51.170;4.442;2024-01-07T09:00:58;3.50;99.90
25923;DHT22;13725;51.170;4.442;2024-01-07T09:03:29;3.60;99.90
25923;DHT22;13725;51.170;4.442;2024-01-07T09:05:55;3.50;99.90
25923;DHT22;13725;51.170;4.442;2024-01-07T09:08:21;3.30;99.90
25923;DHT22;13725;51.170;4.442;2024-01-07T09:10:47;3.30;99.90
25923;DHT22;13725;51.170;4.442;2024-01-07T09:13:13;3.50;99.90
25923;DHT22;13725;51.170;4.442;2024-01-07T09:15:39;3.50;99.90
25923;DHT22;13725;51.170;4.442;2024-01-07T09:18:05;3.40;99.90
25923;DHT22;13725;51.170;4.442;2024-01-07T09:20:31;3.10;99.90
25923;DHT22;13725;51.170;4.442;2024-01-07T09:22:57;3.00;99.90
25923;DHT22;13725;51.170;4.442;2024-01-07T09:25:23;3.00;99.90
25923;DHT22;13725;51.170;4.442;2024-01-07T09:27:49;3.20;99.90
25923;DHT22;13725;51.170;4.442;2024-01-07T09:30:15;3.00;99.90
25923;DHT22;13725;51.170;4.442;2024-01-07T09:32:41;3.00;99.90
25923;DHT22;13725;51.170;4.442;2024-01-07T09:35:07;3.10;99.90
25923;DHT22;13725;51.170;4.442;2024-01-07T09:37:47;3.20;99.90
25923;DHT22;13725;51.170;4.442;2024-01-07T09:40:17;3.10;99.90
25923;DHT22;13725;51.170;4.442;2024-01-07T09:42:47;3.10;99.90
25923;DHT22;13725;51.170;4.442;2024-01-07T09:45:14;3.20;99.90
25923;DHT22;13725;51.170;4.442;2024-01-07T09:47:41;3.20;99.90
25923;DHT22;13725;51.170;4.442;2024-01-07T09:50:12;3.40;99.90
25923;DHT22;13725;51.170;4.442;2024-01-07T09:52:43;3.30;99.90
25923;DHT22;13725;51.170;4.442;2024-01-07T09:55:09;3.20;99.90
25923;DHT22;13725;51.170;4.442;2024-01-07T09:57:40;3.10;99.90
25923;DHT22;13725;51.170;4.442;2024-01-07T10:00:09;3.10;99.90
25923;DHT22;13725;51.170;4.442;2024-01-07T10:02:39;3.20;99.90
25923;DHT22;13725;51.170;4.442;2024-01-07T10:05:07;3.30;99.90
25923;DHT22;13725;51.170;4.442;2024-01-07T10:07:33;3.30;99.90
25923;DHT22;13725;51.170;4.442;2024-01-07T10:10:11;3.20;99.90
25923;DHT22;13725;51.170;4.442;2024-01-07T10:12:37;3.30;99.90
25923;DHT22;13725;51.170;4.442;2024-01-07T10:15:03;3.30;99.90
25923;DHT22;13725;51.170;4.442;2024-01-07T10:17:29;3.30;99.90
25923;DHT22;13725;51.170;4.442;2024-01-07T10:19:56;3.40;99.90
25923;DHT22;13725;51.170;4.442;2024-01-07T10:22:22;3.30;99.90
25923;DHT22;13725;51.170;4.442;2024-01-07T10:24:48;3.30;99.90
25923;DHT22;13725;51.170;4.442;2024-01-07T10:27:16;3.30;99.90
25923;DHT22;13725;51.170;4.442;2024-01-07T10:29:42;3.10;99.90
25923;DHT22;13725;51.170;4.442;2024-01-07T10:32:08;3.10;99.90
25923;DHT22;13725;51.170;4.442;2024-01-07T10:34:36;3.00;99.90
25923;DHT22;13725;51.170;4.442;2024-01-07T10:37:03;2.80;99.90
25923;DHT22;13725;51.170;4.442;2024-01-07T10:39:30;2.90;99.90
25923;DHT22;13725;51.170;4.442;2024-01-07T10:41:56;3.00;99.90
25923;DHT22;13725;51.170;4.442;2024-01-07T10:44:30;3.00;99.90
25923;DHT22;13725;51.170;4.442;2024-01-07T10:46:57;3.10;99.90
25923;DHT22;13725;51.170;4.442;2024-01-07T10:49:27;3.10;99.90
25923;DHT22;13725;51.170;4.442;2024-01-07T10:52:06;3.10;99.90
25923;DHT22;13725;51.170;4.442;2024-01-07T10:54:35;3.00;99.90
25923;DHT22;13725;51.170;4.442;2024-01-07T10:57:21;3.00;99.90
25923;DHT22;13725;51.170;4.442;2024-01-07T10:59:54;3.10;99.90
25923;DHT22;13725;51.170;4.442;2024-01-07T11:02:21;3.30;99.90
25923;DHT22;13725;51.170;4.442;2024-01-07T11:07:39;3.40;99.90
25923;DHT22;13725;51.170;4.442;2024-01-07T11:10:31;3.30;99.90
25923;DHT22;13725;51.170;4.442;2024-01-07T11:12:56;3.30;99.90
25923;DHT22;13725;51.170;4.442;2024-01-07T11:18:22;3.10;99.90
25923;DHT22;13725;51.170;4.442;2024-01-07T11:20:53;3.10;99.90
25923;DHT22;13725;51.170;4.442;2024-01-07T11:23:44;3.10;99.90
25923;DHT22;13725;51.170;4.442;2024-01-07T11:26:12;3.10;99.90
25923;DHT22;13725;51.170;4.442;2024-01-07T11:28:49;3.10;99.90
25923;DHT22;13725;51.170;4.442;2024-01-07T11:31:17;3.10;99.90
25923;DHT22;13725;51.170;4.442;2024-01-07T11:33:50;3.10;99.90
25923;DHT22;13725;51.170;4.442;2024-01-07T11:36:17;3.20;99.90
25923;DHT22;13725;51.170;4.442;2024-01-07T11:38:48;3.10;99.90
25923;DHT22;13725;51.170;4.442;2024-01-07T11:41:15;3.10;99.90
25923;DHT22;13725;51.170;4.442;2024-01-07T11:43:53;3.20;99.90
25923;DHT22;13725;51.170;4.442;2024-01-07T11:46:20;3.20;99.90
25923;DHT22;13725;51.170;4.442;2024-01-07T11:48:46;3.20;99.90
25923;DHT22;13725;51.170;4.442;2024-01-07T11:51:13;3.30;99.90
25923;DHT22;13725;51.170;4.442;2024-01-07T11:53:38;3.30;99.90
25923;DHT22;13725;51.170;4.442;2024-01-07T11:56:04;3.30;99.90
25923;DHT22;13725;51.170;4.442;2024-01-07T11:58:30;3.10;99.90
25923;DHT22;13725;51.170;4.442;2024-01-07T12:00:56;3.00;99.90
25923;DHT22;13725;51.170;4.442;2024-01-07T12:03:23;3.00;99.90
25923;DHT22;13725;51.170;4.442;2024-01-07T12:05:49;3.00;99.90
25923;DHT22;13725;51.170;4.442;2024-01-07T12:08:16;3.30;99.90
25923;DHT22;13725;51.170;4.442;2024-01-07T12:10:42;3.10;99.90
25923;DHT22;13725;51.170;4.442;2024-01-07T12:13:09;3.10;99.90
25923;DHT22;13725;51.170;4.442;2024-01-07T12:15:37;3.10;99.90
25923;DHT22;13725;51.170;4.442;2024-01-07T12:18:04;3.10;99.90
25923;DHT22;13725;51.170;4.442;2024-01-07T12:20:30;3.10;99.90
25923;DHT22;13725;51.170;4.442;2024-01-07T12:22:57;3.20;99.90
25923;DHT22;13725;51.170;4.442;2024-01-07T12:25:24;3.30;99.90
25923;DHT22;13725;51.170;4.442;2024-01-07T12:27:51;3.50;99.90
25923;DHT22;13725;51.170;4.442;2024-01-07T12:30:19;3.30;99.90
25923;DHT22;13725;51.170;4.442;2024-01-07T12:32:46;3.20;99.90
25923;DHT22;13725;51.170;4.442;2024-01-07T12:35:13;3.00;99.90
25923;DHT22;13725;51.170;4.442;2024-01-07T12:37:40;3.00;99.90
25923;DHT22;13725;51.170;4.442;2024-01-07T12:40:07;3.10;99.90
25923;DHT22;13725;51.170;4.442;2024-01-07T12:42:35;3.20;99.90
25923;DHT22;13725;51.170;4.442;2024-01-07T12:45:01;3.00;99.90
25923;DHT22;13725;51.170;4.442;2024-01-07T12:47:27;3.10;99.90
25923;DHT22;13725;51.170;4.442;2024-01-07T12:49:54;3.10;99.90
25923;DHT22;13725;51.170;4.442;2024-01-07T12:52:20;3.10;99.90
25923;DHT22;13725;51.170;4.442;2024-01-07T12:54:46;3.20;99.90
25923;DHT22;13725;51.170;4.442;2024-01-07T12:57:12;3.10;99.90
25923;DHT22;13725;51.170;4.442;2024-01-07T12:59:38;3.30;99.90
25923;DHT22;13725;51.170;4.442;2024-01-07T13:02:04;3.10;99.90
25923;DHT22;13725;51.170;4.442;2024-01-07T13:04:29;2.90;99.90
25923;DHT22;13725;51.170;4.442;2024-01-07T13:06:55;2.90;99.90
25923;DHT22;13725;51.170;4.442;2024-01-07T13:09:21;3.10;99.90
25923;DHT22;13725;51.170;4.442;2024-01-07T13:11:47;3.00;99.90
25923;DHT22;13725;51.170;4.442;2024-01-07T13:14:12;3.10;99.90
25923;DHT22;13725;51.170;4.442;2024-01-07T13:16:38;3.10;99.90
25923;DHT22;13725;51.170;4.442;2024-01-07T13:19:04;3.00;99.90
25923;DHT22;13725;51.170;4.442;2024-01-07T13:21:30;3.00;99.90
25923;DHT22;13725;51.170;4.442;2024-01-07T13:23:55;3.10;99.90
25923;DHT22;13725;51.170;4.442;2024-01-07T13:26:24;3.10;99.90
25923;DHT22;13725;51.170;4.442;2024-01-07T13:28:51;3.10;99.90
25923;DHT22;13725;51.170;4.442;2024-01-07T13:31:25;3.00;99.90
25923;DHT22;13725;51.170;4.442;2024-01-07T13:33:51;3.00;99.90
25923;DHT22;13725;51.170;4.442;2024-01-07T13:36:17;3.10;99.90
25923;DHT22;13725;51.170;4.442;2024-01-07T13:38:43;2.80;99.90
25923;DHT22;13725;51.170;4.442;2024-01-07T13:41:09;3.00;99.90
25923;DHT22;13725;51.170;4.442;2024-01-07T13:43:35;3.00;99.90
25923;DHT22;13725;51.170;4.442;2024-01-07T13:46:03;3.10;99.90
25923;DHT22;13725;51.170;4.442;2024-01-07T13:48:29;3.00;99.90
25923;DHT22;13725;51.170;4.442;2024-01-07T13:50:56;3.10;99.90
25923;DHT22;13725;51.170;4.442;2024-01-07T13:53:23;3.20;99.90
25923;DHT22;13725;51.170;4.442;2024-01-07T13:55:49;3.20;99.90
25923;DHT22;13725;51.170;4.442;2024-01-07T13:58:15;3.10;99.90
25923;DHT22;13725;51.170;4.442;2024-01-07T14:00:41;3.00;99.90
25923;DHT22;13725;51.170;4.442;2024-01-07T14:03:07;3.00;99.90
25923;DHT22;13725;51.170;4.442;2024-01-07T14:05:33;3.00;99.90
25923;DHT22;13725;51.170;4.442;2024-01-07T14:08:01;2.80;99.90
25923;DHT22;13725;51.170;4.442;2024-01-07T14:10:27;2.90;99.90
25923;DHT22;13725;51.170;4.442;2024-01-07T14:12:55;3.10;99.90
25923;DHT22;13725;51.170;4.442;2024-01-07T14:15:22;2.90;99.90
25923;DHT22;13725;51.170;4.442;2024-01-07T14:17:48;3.00;99.90
25923;DHT22;13725;51.170;4.442;2024-01-07T14:20:14;3.00;99.90
25923;DHT22;13725;51.170;4.442;2024-01-07T14:22:40;3.00;99.90
25923;DHT22;13725;51.170;4.442;2024-01-07T14:25:06;3.10;99.90
25923;DHT22;13725;51.170;4.442;2024-01-07T14:27:32;3.00;99.90
25923;DHT22;13725;51.170;4.442;2024-01-07T14:29:58;3.10;99.90
25923;DHT22;13725;51.170;4.442;2024-01-07T14:32:24;3.00;99.90
25923;DHT22;13725;51.170;4.442;2024-01-07T14:34:50;3.10;99.90
25923;DHT22;13725;51.170;4.442;2024-01-07T14:37:16;3.10;99.90
25923;DHT22;13725;51.170;4.442;2024-01-07T14:39:42;3.00;99.90
25923;DHT22;13725;51.170;4.442;2024-01-07T14:42:08;2.80;99.90
25923;DHT22;13725;51.170;4.442;2024-01-07T14:44:34;2.70;99.90
25923;DHT22;13725;51.170;4.442;2024-01-07T14:47:00;2.50;99.90
25923;DHT22;13725;51.170;4.442;2024-01-07T14:49:26;2.50;99.90
25923;DHT22;13725;51.170;4.442;2024-01-07T14:51:52;2.50;99.90
25923;DHT22;13725;51.170;4.442;2024-01-07T14:54:18;2.30;99.90
25923;DHT22;13725;51.170;4.442;2024-01-07T14:56:44;2.20;99.90
25923;DHT22;13725;51.170;4.442;2024-01-07T14:59:09;2.30;99.90
25923;DHT22;13725;51.170;4.442;2024-01-07T15:01:35;2.30;99.90
25923;DHT22;13725;51.170;4.442;2024-01-07T15:04:02;2.20;99.90
25923;DHT22;13725;51.170;4.442;2024-01-07T15:06:28;2.20;99.90
25923;DHT22;13725;51.170;4.442;2024-01-07T15:08:53;2.30;99.90
25923;DHT22;13725;51.170;4.442;2024-01-07T15:11:20;2.30;99.90
25923;DHT22;13725;51.170;4.442;2024-01-07T15:13:47;2.30;99.90
25923;DHT22;13725;51.170;4.442;2024-01-07T15:16:13;2.50;99.90
25923;DHT22;13725;51.170;4.442;2024-01-07T15:18:38;2.50;99.90
25923;DHT22;13725;51.170;4.442;2024-01-07T15:21:04;2.50;99.90
25923;DHT22;13725;51.170;4.442;2024-01-07T15:23:30;2.50;99.90
25923;DHT22;13725;51.170;4.442;2024-01-07T15:25:56;2.60;99.90
25923;DHT22;13725;51.170;4.442;2024-01-07T15:28:22;2.50;99.90
25923;DHT22;13725;51.170;4.442;2024-01-07T15:30:47;2.30;99.90
25923;DHT22;13725;51.170;4.442;2024-01-07T15:33:14;2.40;99.90
25923;DHT22;13725;51.170;4.442;2024-01-07T15:35:39;2.40;99.90
25923;DHT22;13725;51.170;4.442;2024-01-07T15:38:06;2.00;99.90
25923;DHT22;13725;51.170;4.442;2024-01-07T15:40:31;1.80;99.90
25923;DHT22;13725;51.170;4.442;2024-01-07T15:42:58;1.70;99.90
25923;DHT22;13725;51.170;4.442;2024-01-07T15:45:25;1.60;99.90
25923;DHT22;13725;51.170;4.442;2024-01-07T15:47:51;1.60;99.90